Airfield :







YOU CAN JOIN US ON...

 
LOGIN :

Register | Disclaimer

   EN    FR    IT 

 









Legend :    VFR   Marginal VFR   IFR   Intensive IFR   Very Intensive IFR
Visi :
Ceiling :
>= 8 km
>= 3000ft
5 to 8 km
1000 to 3000 ft
1500m to 5 km
500 to 1000 ft
800 to 1500m
200 to 500 ft
< 800m
< 200 ft
Symbols :   Thunderstorms  Fog  Heavy snow  Heavy precipitations  Wind > 20 kt







- Airport Elevation : 21 ft
- IATA code : YVM


CYVM - Qikiqtarjuac

CURRENT METAR :
  • 171214Z 22008KT 6SM -DZ BR FEW002 OVC004 05/05 A2957 RMK SF2ST6 VIS S-SW 11/2 BR SLP015

EXPIRED METARs :
  • 171140Z 23008KT 6SM BR FEW002 OVC008 05/05 A2956 RMK SF2ST6 S00 AFT 22UTC/VIS N 10 SLP013
  • 171100Z AUTO 23009KT 9SM OVC008 05/05 A2956 RMK SLP011
  • 171000Z AUTO 00000KT 9SM OVC004 04/04 A2954 RMK SLP006

TAF TAF CYVM
Valid from the 17 at 13:00 until the 18 at 01:00 UTC


171238Z 1713/1801 20008KT P6SM SCT006 BKN020
TEMPO 1713/1717 4SM BR BKN006
FM171700 14008KT P6SM BKN030 RMK FCST BASED ON AUTO OBS. NXT FCST BY 171900Z
CZEG FIR / North America



MET'MAP, your aeronautical weather chart ! - Copyright ORBIFLY December 2007 - Disclaimer

ORBIFLY MET'MAP TEAM :

Programming & Development : Alexandra Zaïnal
Concept & Development : Baudouin d'Aumeries
Co-Development & Prog : Marc-Olivier Méhu
Technical & hardware support : Manuel Goepfert

Contact : metmap@orbifly.com




SOURCES & CREDITS :

   NOAA